Time;durP1;ratioP1;P1;durP2;ratioP2;P2;SDS_P1;SDS_P2;PMS_P1;PMS_P2;Temp;Humidity;BMP_temperature;BMP_pressure;BME280_temperature;BME280_humidity;BME280_pressure;Samples;Min_cycle;Max_cycle;Signal;HPM_P1;HPM_P2
2023/07/26 00:01:36;;;;;;;3.92;1.50;;;;;;;15.14;100.00;100242.31;5022085;28;20055;-69
2023/07/26 00:04:04;;;;;;;4.10;1.58;;;;;;;15.26;100.00;100238.88;5011580;28;20057;-69
2023/07/26 00:06:31;;;;;;;4.07;1.60;;;;;;;15.38;100.00;100237.22;5028965;28;20056;-70
2023/07/26 00:08:58;;;;;;;8.68;1.85;;;;;;;15.38;100.00;100238.06;5028667;28;20136;-69
2023/07/26 00:11:25;;;;;;;4.43;1.58;;;;;;;15.45;100.00;100232.41;5019877;28;20072;-69
2023/07/26 00:13:52;;;;;;;6.53;1.90;;;;;;;15.50;100.00;100235.59;5034814;28;20167;-69
2023/07/26 00:16:18;;;;;;;4.88;1.50;;;;;;;15.57;100.00;100234.22;5045536;28;20053;-69
2023/07/26 00:18:45;;;;;;;4.40;1.33;;;;;;;15.54;100.00;100237.06;5035635;28;20072;-69
2023/07/26 00:21:11;;;;;;;3.35;1.35;;;;;;;15.48;100.00;100229.56;5030006;28;20050;-69
2023/07/26 00:23:38;;;;;;;3.85;1.42;;;;;;;15.49;100.00;100239.16;5043255;28;20514;-70
2023/07/26 00:26:05;;;;;;;3.17;1.40;;;;;;;15.39;100.00;100233.66;5032963;28;20056;-69
2023/07/26 00:28:31;;;;;;;3.60;1.40;;;;;;;15.40;100.00;100235.34;5043991;28;20056;-69
2023/07/26 00:30:58;;;;;;;5.35;1.38;;;;;;;15.45;100.00;100243.78;5029896;28;20767;-69
2023/07/26 00:33:25;;;;;;;3.25;1.27;;;;;;;15.43;100.00;100245.69;5045275;28;20060;-69
2023/07/26 00:35:51;;;;;;;4.68;1.50;;;;;;;15.29;100.00;100238.69;5047290;28;20056;-69
2023/07/26 00:38:18;;;;;;;3.25;1.23;;;;;;;15.36;100.00;100239.97;5014295;28;20395;-69
2023/07/26 00:40:45;;;;;;;3.05;1.30;;;;;;;15.35;100.00;100245.34;5033308;28;20053;-69
2023/07/26 00:43:11;;;;;;;2.53;1.20;;;;;;;15.42;100.00;100241.34;5032542;28;20053;-69
2023/07/26 00:45:40;;;;;;;6.43;1.67;;;;;;;15.53;100.00;100245.94;5033296;28;20136;-69
2023/07/26 00:48:07;;;;;;;4.22;1.35;;;;;;;15.28;100.00;100234.38;5038669;28;20049;-69
2023/07/26 00:50:34;;;;;;;4.22;1.42;;;;;;;15.34;100.00;100241.03;5026030;28;20053;-69
2023/07/26 00:53:02;;;;;;;4.25;1.40;;;;;;;15.41;100.00;100236.19;5028030;28;20053;-69
2023/07/26 00:55:29;;;;;;;6.25;1.50;;;;;;;15.45;100.00;100249.06;5033134;28;20053;-69
2023/07/26 00:57:57;;;;;;;5.20;1.40;;;;;;;15.28;100.00;100238.78;5043960;28;20049;-69
2023/07/26 01:00:23;;;;;;;3.72;1.27;;;;;;;15.31;100.00;100249.97;5033431;28;20037;-69
2023/07/26 01:02:50;;;;;;;4.53;1.52;;;;;;;15.30;100.00;100247.47;5010884;28;20068;-69
2023/07/26 01:05:17;;;;;;;4.88;1.60;;;;;;;15.25;100.00;100242.47;5030603;28;20053;-69
2023/07/26 01:08:06;;;;;;;5.70;1.58;;;;;;;15.30;100.00;100247.47;5034647;28;20076;-69
2023/07/26 01:10:46;;;;;;;4.68;1.55;;;;;;;15.25;100.00;100249.53;5032086;28;20077;-69
2023/07/26 01:13:30;;;;;;;3.17;1.25;;;;;;;15.31;100.00;100246.50;5046204;28;20195;-69
2023/07/26 01:15:57;;;;;;;4.43;1.67;;;;;;;15.33;100.00;100242.81;5042528;28;20052;-70
2023/07/26 01:18:24;;;;;;;7.15;1.63;;;;;;;15.10;100.00;100241.69;5045869;28;20751;-69
2023/07/26 01:20:50;;;;;;;3.75;1.27;;;;;;;15.15;100.00;100238.72;5037535;28;20049;-69
2023/07/26 01:23:17;;;;;;;5.13;1.52;;;;;;;15.12;100.00;100241.56;5048344;28;20052;-69
2023/07/26 01:25:44;;;;;;;3.50;1.30;;;;;;;15.04;100.00;100228.88;5043643;28;20053;-69
2023/07/26 01:28:11;;;;;;;4.35;1.60;;;;;;;15.11;100.00;100245.16;5024956;28;20053;-69
2023/07/26 01:30:38;;;;;;;4.75;1.50;;;;;;;14.96;100.00;100239.94;5030011;28;20052;-69
2023/07/26 01:33:07;;;;;;;3.95;1.48;;;;;;;14.85;100.00;100239.75;5041700;28;20152;-70
2023/07/26 01:35:35;;;;;;;9.18;1.88;;;;;;;14.97;100.00;100240.75;5031948;28;20058;-69
2023/07/26 01:38:03;;;;;;;5.53;1.70;;;;;;;14.87;100.00;100239.66;5040869;28;20084;-69
2023/07/26 01:40:30;;;;;;;6.32;1.80;;;;;;;14.87;100.00;100235.22;5034338;28;20052;-69
2023/07/26 01:42:57;;;;;;;7.15;1.80;;;;;;;14.69;100.00;100217.94;5045282;28;20052;-69
2023/07/26 01:45:24;;;;;;;5.22;1.83;;;;;;;14.75;100.00;100235.97;5045317;28;20053;-69
2023/07/26 01:47:52;;;;;;;5.00;1.65;;;;;;;14.75;100.00;100243.88;5036660;28;20041;-69
2023/07/26 01:50:19;;;;;;;6.75;1.60;;;;;;;14.55;100.00;100227.50;5033720;28;20111;-70
2023/07/26 01:52:46;;;;;;;4.53;1.42;;;;;;;14.73;100.00;100236.09;5033544;28;20058;-69
2023/07/26 01:55:12;;;;;;;5.97;1.80;;;;;;;14.64;100.00;100244.56;5036926;28;20076;-69
2023/07/26 01:57:39;;;;;;;5.60;1.65;;;;;;;14.60;100.00;100232.53;5044217;28;20060;-69
2023/07/26 02:00:07;;;;;;;4.65;1.45;;;;;;;14.70;100.00;100236.28;5030723;28;20303;-68
2023/07/26 02:02:34;;;;;;;2.20;1.10;;;;;;;14.78;100.00;100233.16;5043051;28;20095;-69
2023/07/26 02:05:01;;;;;;;6.35;1.60;;;;;;;14.60;100.00;100224.63;5030932;28;20064;-69
2023/07/26 02:07:27;;;;;;;5.13;1.55;;;;;;;14.72;100.00;100237.03;5033695;28;20045;-68
2023/07/26 02:09:54;;;;;;;4.43;1.48;;;;;;;14.90;100.00;100235.03;5043814;28;20497;-69
2023/07/26 02:12:21;;;;;;;7.80;1.65;;;;;;;14.64;100.00;100227.91;5030230;28;20156;-69
2023/07/26 02:14:48;;;;;;;3.63;1.50;;;;;;;14.68;100.00;100227.66;5029562;28;20483;-69
2023/07/26 02:17:14;;;;;;;5.38;1.50;;;;;;;14.64;100.00;100217.38;5033335;28;20064;-69
2023/07/26 02:19:41;;;;;;;3.65;1.40;;;;;;;14.78;100.00;100209.44;5030093;28;20128;-68
2023/07/26 02:22:07;;;;;;;4.78;1.60;;;;;;;14.75;100.00;100215.78;5032762;28;20055;-68
2023/07/26 02:24:34;;;;;;;5.57;1.70;;;;;;;14.71;100.00;100214.25;5046402;28;20049;-68
2023/07/26 02:27:01;;;;;;;4.28;1.52;;;;;;;14.65;100.00;100201.47;5046496;28;20536;-69
2023/07/26 02:29:28;;;;;;;4.18;1.50;;;;;;;14.53;100.00;100207.50;5031487;28;20049;-69
2023/07/26 02:31:54;;;;;;;5.47;1.33;;;;;;;14.48;100.00;100205.13;5030648;28;20140;-69
2023/07/26 02:34:21;;;;;;;4.00;1.27;;;;;;;14.33;100.00;100196.41;5029672;28;20050;-69
2023/07/26 02:36:48;;;;;;;3.65;1.30;;;;;;;14.38;100.00;100202.25;5038624;28;20057;-69
2023/07/26 02:39:14;;;;;;;3.97;1.40;;;;;;;14.46;100.00;100211.44;5030278;28;20052;-69
2023/07/26 02:41:41;;;;;;;3.83;1.23;;;;;;;14.39;100.00;100214.44;5033387;28;20103;-69
2023/07/26 02:44:08;;;;;;;4.53;1.58;;;;;;;14.29;100.00;100209.84;5034493;28;20450;-69
2023/07/26 02:46:34;;;;;;;6.22;1.65;;;;;;;14.29;100.00;100213.34;5030501;28;20050;-69
2023/07/26 02:49:01;;;;;;;6.43;1.40;;;;;;;14.03;100.00;100204.41;5029009;28;20049;-69
2023/07/26 02:51:28;;;;;;;6.28;1.40;;;;;;;13.94;100.00;100212.84;5021407;28;20053;-69
2023/07/26 02:53:54;;;;;;;4.65;1.50;;;;;;;13.84;100.00;100212.53;5037519;28;20124;-70
2023/07/26 02:56:21;;;;;;;3.17;1.10;;;;;;;13.82;100.00;100210.00;5031360;28;20064;-69
2023/07/26 02:58:47;;;;;;;5.60;1.60;;;;;;;13.73;100.00;100209.72;5035158;28;20140;-69
2023/07/26 03:01:14;;;;;;;4.65;1.40;;;;;;;13.61;100.00;100191.06;5033910;28;20041;-69
2023/07/26 03:03:42;;;;;;;3.67;1.40;;;;;;;13.66;100.00;100204.78;5040011;28;20088;-70
2023/07/26 03:06:09;;;;;;;2.25;1.15;;;;;;;13.67;100.00;100214.41;5038897;28;20053;-69
2023/07/26 03:08:36;;;;;;;4.10;1.40;;;;;;;13.75;100.00;100215.72;5032120;28;20056;-69
2023/07/26 03:11:02;;;;;;;4.20;1.50;;;;;;;13.81;100.00;100216.22;5031995;28;20045;-69
2023/07/26 03:13:29;;;;;;;5.15;1.40;;;;;;;13.81;100.00;100210.94;5043360;28;20053;-69
2023/07/26 03:15:56;;;;;;;4.28;1.30;;;;;;;13.75;100.00;100211.31;5044756;28;20077;-69
2023/07/26 03:18:23;;;;;;;4.72;1.33;;;;;;;13.75;100.00;100202.56;5034204;28;20457;-70
2023/07/26 03:20:50;;;;;;;5.30;1.77;;;;;;;13.63;100.00;100197.09;5021214;28;20130;-69
2023/07/26 03:23:16;;;;;;;3.13;1.30;;;;;;;13.79;100.00;100207.56;5032365;28;20391;-69
2023/07/26 03:25:43;;;;;;;3.13;1.23;;;;;;;13.83;100.00;100195.06;5039882;28;20053;-68
2023/07/26 03:28:10;;;;;;;5.50;1.60;;;;;;;13.74;100.00;100187.72;5039178;28;20466;-69
2023/07/26 03:30:36;;;;;;;4.93;1.63;;;;;;;13.80;100.00;100200.50;5027292;28;20041;-69
2023/07/26 03:33:03;;;;;;;4.47;1.45;;;;;;;13.97;100.00;100200.34;5043576;28;20059;-69
2023/07/26 03:35:30;;;;;;;4.60;1.60;;;;;;;14.00;100.00;100202.78;5030006;28;20103;-69
2023/07/26 03:37:56;;;;;;;8.55;1.60;;;;;;;14.07;100.00;100184.00;5030035;28;20475;-69
2023/07/26 03:40:23;;;;;;;3.30;1.40;;;;;;;14.03;100.00;100201.75;5038180;28;20498;-69
2023/07/26 03:42:50;;;;;;;4.35;1.38;;;;;;;13.99;100.00;100187.09;5036023;28;20430;-69
2023/07/26 03:45:16;;;;;;;3.70;1.40;;;;;;;14.14;100.00;100191.41;5045519;28;20057;-69
2023/07/26 03:47:43;;;;;;;5.65;1.77;;;;;;;14.22;100.00;100199.69;5038498;28;20056;-69
2023/07/26 03:50:10;;;;;;;5.32;1.73;;;;;;;14.09;100.00;100193.47;5029749;28;20338;-69
2023/07/26 03:52:37;;;;;;;2.72;1.20;;;;;;;14.19;100.00;100199.03;5021238;28;20052;-69
2023/07/26 03:55:04;;;;;;;4.13;1.33;;;;;;;14.17;100.00;100193.03;5041421;28;20049;-69
2023/07/26 03:57:31;;;;;;;5.13;1.30;;;;;;;14.16;100.00;100194.78;5032254;28;20041;-69
2023/07/26 03:59:58;;;;;;;4.30;1.45;;;;;;;14.10;100.00;100191.72;5027276;28;20041;-69
2023/07/26 04:02:24;;;;;;;4.65;1.35;;;;;;;13.84;100.00;100194.97;5030789;28;20056;-69
2023/07/26 04:04:51;;;;;;;3.33;1.30;;;;;;;13.81;100.00;100200.44;5047535;28;20049;-70
2023/07/26 04:07:18;;;;;;;3.08;1.38;;;;;;;13.89;100.00;100201.75;5035325;28;20537;-69
2023/07/26 04:09:45;;;;;;;4.32;1.40;;;;;;;13.86;100.00;100208.91;5039958;28;20045;-69
2023/07/26 04:12:11;;;;;;;5.70;1.40;;;;;;;14.09;100.00;100211.06;5029288;28;20467;-69
2023/07/26 04:14:38;;;;;;;4.18;1.58;;;;;;;14.11;100.00;100203.91;5035489;28;20045;-69
2023/07/26 04:17:04;;;;;;;3.28;1.23;;;;;;;14.03;100.00;100199.13;5046499;28;20061;-69
2023/07/26 04:19:31;;;;;;;3.90;1.42;;;;;;;14.02;100.00;100210.59;5033473;28;20048;-69
2023/07/26 04:21:58;;;;;;;3.30;1.30;;;;;;;14.01;100.00;100207.13;5023635;28;20451;-69
2023/07/26 04:24:25;;;;;;;3.05;1.48;;;;;;;14.00;100.00;100204.56;5036627;28;20056;-69
2023/07/26 04:26:52;;;;;;;3.95;1.48;;;;;;;13.97;100.00;100207.38;5037551;28;20132;-69
2023/07/26 04:29:19;;;;;;;3.08;1.20;;;;;;;13.97;100.00;100210.88;5034512;28;20085;-69
2023/07/26 04:31:46;;;;;;;4.18;1.48;;;;;;;13.98;100.00;100206.47;5029990;28;20045;-69
2023/07/26 04:34:14;;;;;;;6.43;1.60;;;;;;;14.09;100.00;100221.59;5024270;28;20058;-69
2023/07/26 04:36:41;;;;;;;3.05;1.20;;;;;;;14.03;100.00;100207.88;5031227;28;20487;-70
2023/07/26 04:39:07;;;;;;;3.65;1.50;;;;;;;13.86;100.00;100190.47;5038684;28;20044;-69
2023/07/26 04:41:34;;;;;;;3.47;1.38;;;;;;;14.02;100.00;100211.44;5022487;28;20045;-69
2023/07/26 04:44:01;;;;;;;5.97;1.67;;;;;;;14.16;100.00;100213.22;5044320;28;20053;-69
2023/07/26 04:46:28;;;;;;;6.65;1.77;;;;;;;13.91;100.00;100210.41;5040604;28;20053;-69
2023/07/26 04:48:54;;;;;;;5.20;1.70;;;;;;;14.09;100.00;100224.22;5040780;28;20439;-70
2023/07/26 04:51:23;;;;;;;4.90;1.60;;;;;;;14.00;100.00;100218.56;5018214;28;20069;-69
2023/07/26 04:53:50;;;;;;;5.30;1.60;;;;;;;13.97;100.00;100218.78;5012464;28;20532;-70
2023/07/26 04:56:17;;;;;;;5.50;1.65;;;;;;;14.05;100.00;100221.78;5023084;28;20060;-69
2023/07/26 04:58:44;;;;;;;4.07;1.55;;;;;;;14.03;100.00;100212.28;5038060;28;20049;-69
2023/07/26 05:01:10;;;;;;;5.68;1.52;;;;;;;14.02;100.00;100216.72;5032207;28;20068;-69
2023/07/26 05:03:38;;;;;;;3.70;1.40;;;;;;;14.07;100.00;100221.69;5033284;28;20049;-70
2023/07/26 05:06:05;;;;;;;5.38;1.77;;;;;;;14.19;100.00;100233.28;5032746;28;20053;-70
2023/07/26 05:08:33;;;;;;;2.92;1.23;;;;;;;14.17;100.00;100228.09;5032526;28;20132;-69
2023/07/26 05:11:00;;;;;;;6.80;1.70;;;;;;;14.14;100.00;100225.63;5042557;28;20075;-69
2023/07/26 05:13:27;;;;;;;3.58;1.40;;;;;;;13.97;100.00;100220.53;5042266;28;20463;-69
2023/07/26 05:15:54;;;;;;;5.32;1.65;;;;;;;14.01;100.00;100232.59;5043130;28;20414;-69
2023/07/26 05:18:20;;;;;;;3.70;1.40;;;;;;;14.02;100.00;100221.13;5038808;28;20292;-70
2023/07/26 05:20:51;;;;;;;6.07;1.90;;;;;;;14.01;100.00;100225.53;5015093;28;20376;-69
2023/07/26 05:23:18;;;;;;;4.03;1.52;;;;;;;14.10;100.00;100234.66;5039265;28;20055;-70
2023/07/26 05:25:45;;;;;;;5.47;1.77;;;;;;;14.08;100.00;100235.69;5007966;28;20053;-70
2023/07/26 05:28:13;;;;;;;4.18;1.50;;;;;;;14.07;100.00;100231.38;5046483;28;20374;-70
2023/07/26 05:30:41;;;;;;;5.47;1.67;;;;;;;14.10;100.00;100234.66;5032190;28;20053;-70
2023/07/26 05:33:08;;;;;;;8.30;1.70;;;;;;;13.97;100.00;100225.81;5046164;28;20133;-70
2023/07/26 05:35:35;;;;;;;6.88;1.90;;;;;;;13.94;100.00;100213.69;5042334;28;20057;-69
2023/07/26 05:38:02;;;;;;;5.45;1.63;;;;;;;14.07;100.00;100224.31;5039300;28;20053;-69
2023/07/26 05:40:29;;;;;;;6.13;1.92;;;;;;;14.07;100.00;100229.59;5024908;28;20050;-69
2023/07/26 05:42:55;;;;;;;6.60;1.65;;;;;;;13.96;100.00;100222.34;5032010;28;20396;-70
2023/07/26 05:45:25;;;;;;;5.82;2.00;;;;;;;13.90;100.00;100227.97;5051727;28;20107;-69
2023/07/26 05:47:52;;;;;;;6.55;1.98;;;;;;;13.70;100.00;100228.28;5031771;28;20050;-70
2023/07/26 05:50:19;;;;;;;6.93;1.80;;;;;;;13.79;100.00;100230.38;5030292;28;20046;-69
2023/07/26 05:52:50;;;;;;;6.35;1.95;;;;;;;13.87;100.00;100225.53;5031729;28;20049;-69
2023/07/26 05:55:17;;;;;;;6.18;1.90;;;;;;;13.90;100.00;100232.38;5032315;28;20055;-70
2023/07/26 05:57:43;;;;;;;6.22;1.95;;;;;;;13.94;100.00;100233.91;5031111;28;20042;-70
2023/07/26 06:00:13;;;;;;;4.70;1.65;;;;;;;13.98;100.00;100238.03;5028804;28;20119;-70
2023/07/26 06:02:40;;;;;;;5.15;1.73;;;;;;;14.03;100.00;100228.91;5030780;28;20049;-70
2023/07/26 06:05:07;;;;;;;4.82;1.65;;;;;;;14.14;100.00;100230.91;5031018;28;20053;-70
2023/07/26 06:07:34;;;;;;;5.25;2.10;;;;;;;14.17;100.00;100229.88;5031286;28;20463;-66
2023/07/26 06:10:01;;;;;;;3.90;1.48;;;;;;;14.95;100.00;100232.94;5030722;28;20144;-67
2023/07/26 06:12:27;;;;;;;3.75;1.40;;;;;;;15.75;100.00;100235.66;5029886;28;20045;-67
2023/07/26 06:14:54;;;;;;;5.53;1.70;;;;;;;15.70;100.00;100235.09;5030949;28;20468;-67
2023/07/26 06:17:21;;;;;;;7.10;1.77;;;;;;;15.11;100.00;100232.81;5043977;28;20049;-67
2023/07/26 06:19:47;;;;;;;5.15;1.48;;;;;;;15.04;100.00;100234.16;5036125;28;20112;-66
2023/07/26 06:22:14;;;;;;;7.72;2.28;;;;;;;14.58;100.00;100231.78;5023004;28;20385;-67
2023/07/26 06:24:41;;;;;;;5.63;1.60;;;;;;;14.77;100.00;100242.88;5030486;28;20538;-68
2023/07/26 06:27:08;;;;;;;5.35;1.83;;;;;;;15.19;100.00;100235.81;5031264;28;20115;-67
2023/07/26 06:29:35;;;;;;;5.70;1.65;;;;;;;16.14;100.00;100231.25;5036793;28;20054;-67
2023/07/26 06:32:03;;;;;;;4.68;1.50;;;;;;;16.00;100.00;100238.44;5031670;28;20044;-67
2023/07/26 06:34:30;;;;;;;5.30;1.73;;;;;;;15.92;100.00;100228.41;5037269;28;20140;-68
2023/07/26 06:36:57;;;;;;;5.10;1.50;;;;;;;16.01;100.00;100230.41;5043609;28;20498;-68
2023/07/26 06:39:26;;;;;;;4.03;1.30;;;;;;;15.73;100.00;100224.34;5030344;28;20061;-68
2023/07/26 06:41:53;;;;;;;4.05;1.40;;;;;;;16.20;100.00;100242.34;5023215;28;20037;-67
2023/07/26 06:44:20;;;;;;;3.80;1.40;;;;;;;16.18;100.00;100236.34;5035011;28;20061;-68
2023/07/26 06:46:47;;;;;;;3.63;1.20;;;;;;;15.92;100.00;100241.63;5034585;28;20053;-68
2023/07/26 06:49:13;;;;;;;4.47;1.35;;;;;;;15.91;100.00;100234.63;5043667;28;20048;-67
2023/07/26 06:51:40;;;;;;;4.28;1.30;;;;;;;17.02;100.00;100237.50;5031506;28;20386;-68
2023/07/26 06:54:06;;;;;;;4.70;1.50;;;;;;;17.63;100.00;100248.00;5024448;28;20515;-68
2023/07/26 06:56:33;;;;;;;4.82;1.75;;;;;;;17.75;100.00;100247.06;5044077;28;20486;-68
2023/07/26 06:59:01;;;;;;;4.00;1.45;;;;;;;17.08;100.00;100239.69;5027728;28;20050;-68
2023/07/26 07:01:28;;;;;;;3.00;1.15;;;;;;;16.94;100.00;100245.97;5012357;28;20396;-68
2023/07/26 07:03:55;;;;;;;5.05;1.40;;;;;;;17.63;100.00;100242.69;5046500;28;20136;-68
2023/07/26 07:06:39;;;;;;;4.32;1.48;;;;;;;18.14;100.00;100239.72;5030710;28;20557;-68
2023/07/26 07:09:06;;;;;;;4.00;1.10;;;;;;;17.63;100.00;100240.88;5036322;28;20055;-67
2023/07/26 07:11:32;;;;;;;4.85;1.50;;;;;;;17.46;100.00;100254.56;5031778;28;20214;-68
2023/07/26 07:13:59;;;;;;;4.15;1.50;;;;;;;17.54;100.00;100251.31;5043765;28;20074;-67
2023/07/26 07:16:26;;;;;;;6.18;1.85;;;;;;;17.19;100.00;100255.63;5037451;28;20064;-67
2023/07/26 07:18:53;;;;;;;6.40;1.88;;;;;;;16.79;100.00;100254.97;5031803;28;20081;-67
2023/07/26 07:21:20;;;;;;;4.35;1.48;;;;;;;16.33;100.00;100251.13;5020021;28;20107;-67
2023/07/26 07:23:51;;;;;;;5.45;1.92;;;;;;;16.43;100.00;100223.13;5037300;28;20056;-67
2023/07/26 07:26:18;;;;;;;5.20;1.58;;;;;;;16.64;100.00;100254.25;5030827;28;20422;-67
2023/07/26 07:28:44;;;;;;;6.22;1.88;;;;;;;16.77;100.00;100249.81;5037328;28;20497;-67
2023/07/26 07:31:11;;;;;;;5.47;1.65;;;;;;;16.72;100.00;100246.63;5026145;28;20044;-68
2023/07/26 07:33:38;;;;;;;4.53;1.40;;;;;;;16.74;100.00;100243.88;5035852;28;20045;-67
2023/07/26 07:36:06;;;;;;;6.68;1.85;;;;;;;17.27;100.00;100247.97;5030054;28;20140;-67
2023/07/26 07:38:33;;;;;;;5.95;1.95;;;;;;;17.01;100.00;100249.84;5036027;28;20049;-67
2023/07/26 07:41:00;;;;;;;8.52;2.40;;;;;;;16.72;100.00;100241.34;5034559;28;20054;-67
2023/07/26 07:43:27;;;;;;;6.65;1.92;;;;;;;16.70;100.00;100244.09;5045209;28;20572;-67
2023/07/26 07:45:53;;;;;;;4.50;1.70;;;;;;;16.73;100.00;100243.03;5028588;28;20497;-67
2023/07/26 07:48:20;;;;;;;4.95;1.70;;;;;;;16.47;100.00;100237.78;5031719;28;20052;-67
2023/07/26 07:50:55;;;;;;;5.47;1.73;;;;;;;17.04;100.00;100246.16;5020842;28;20480;-67
2023/07/26 07:53:23;;;;;;;6.20;1.95;;;;;;;17.21;100.00;100234.31;5024527;28;20049;-67
2023/07/26 07:55:51;;;;;;;9.25;2.10;;;;;;;17.06;100.00;100228.38;5027963;28;20049;-68
2023/07/26 07:58:17;;;;;;;4.95;1.55;;;;;;;17.57;100.00;100220.19;5018481;28;20045;-68
2023/07/26 08:00:44;;;;;;;5.30;1.63;;;;;;;18.52;100.00;100222.63;5023421;28;20041;-68
2023/07/26 08:03:11;;;;;;;4.90;1.52;;;;;;;18.73;100.00;100221.88;5021780;28;20045;-68
2023/07/26 08:05:39;;;;;;;5.03;1.50;;;;;;;19.33;100.00;100219.69;5032706;28;20045;-68
2023/07/26 08:08:08;;;;;;;5.93;1.73;;;;;;;18.42;100.00;100219.03;5028678;28;20050;-68
2023/07/26 08:10:37;;;;;;;4.63;1.38;;;;;;;18.88;100.00;100228.66;5010801;28;20483;-67
2023/07/26 08:13:04;;;;;;;4.60;1.55;;;;;;;18.94;100.00;100225.47;5028338;28;20391;-68
2023/07/26 08:15:32;;;;;;;5.05;1.45;;;;;;;18.51;100.00;100226.25;5028808;28;20053;-68
2023/07/26 08:17:59;;;;;;;4.53;1.50;;;;;;;18.16;100.00;100223.72;5035273;28;20099;-67
2023/07/26 08:20:26;;;;;;;4.40;1.55;;;;;;;18.05;100.00;100231.66;5023190;28;20555;-69
2023/07/26 08:22:53;;;;;;;4.28;1.42;;;;;;;19.00;100.00;100216.22;5020513;28;20136;-68
2023/07/26 08:25:26;;;;;;;5.80;1.50;;;;;;;18.94;100.00;100232.59;5022459;28;20047;-68
2023/07/26 08:27:52;;;;;;;6.43;1.70;;;;;;;18.36;100.00;100223.00;5027708;28;20045;-67
2023/07/26 08:30:19;;;;;;;7.07;1.40;;;;;;;18.18;100.00;100221.78;5015169;28;20475;-68
2023/07/26 08:32:46;;;;;;;3.63;1.33;;;;;;;18.74;100.00;100221.75;5025154;28;20426;-67
2023/07/26 08:35:12;;;;;;;4.07;1.23;;;;;;;18.85;100.00;100222.75;5030086;28;20069;-69
2023/07/26 08:37:39;;;;;;;4.28;1.25;;;;;;;19.35;100.00;100221.28;5031933;28;20056;-68
2023/07/26 08:40:06;;;;;;;5.50;1.50;;;;;;;19.38;100.00;100214.03;5028924;28;20049;-67
2023/07/26 08:42:33;;;;;;;3.92;1.23;;;;;;;19.21;100.00;100212.75;5026229;28;20095;-67
2023/07/26 08:45:01;;;;;;;4.35;1.60;;;;;;;19.12;100.00;100209.03;5035988;28;20141;-68
2023/07/26 08:47:29;;;;;;;7.68;2.40;;;;;;;19.09;100.00;100217.28;5035232;28;20049;-67
2023/07/26 08:49:57;;;;;;;5.68;1.70;;;;;;;18.97;100.00;100214.63;5030716;28;20045;-67
2023/07/26 08:52:25;;;;;;;4.13;1.33;;;;;;;18.72;100.00;100215.75;5026003;28;20053;-68
2023/07/26 08:54:52;;;;;;;6.82;1.70;;;;;;;19.22;100.00;100219.75;5032089;28;20148;-68
2023/07/26 08:57:20;;;;;;;5.85;1.60;;;;;;;19.08;100.00;100216.41;5030987;28;20053;-68
2023/07/26 08:59:47;;;;;;;6.45;1.60;;;;;;;19.03;100.00;100213.28;5028288;28;20041;-67
2023/07/26 09:02:15;;;;;;;4.68;1.67;;;;;;;18.84;100.00;100213.94;5031953;28;20399;-67
2023/07/26 09:04:42;;;;;;;3.83;1.38;;;;;;;19.48;100.00;100217.59;5039925;28;20463;-68
2023/07/26 09:07:09;;;;;;;3.95;1.40;;;;;;;18.92;100.00;100208.84;5029191;28;20049;-67
2023/07/26 09:09:36;;;;;;;5.38;1.45;;;;;;;19.45;100.00;100213.38;5031589;28;20444;-67
2023/07/26 09:12:03;;;;;;;3.80;1.50;;;;;;;19.23;100.00;100211.66;5027324;28;20451;-67
2023/07/26 09:14:31;;;;;;;4.60;1.40;;;;;;;19.98;100.00;100211.69;5044248;28;20060;-68
2023/07/26 09:17:00;;;;;;;7.47;1.60;;;;;;;19.97;100.00;100199.34;5034667;28;20053;-69
2023/07/26 09:19:34;;;;;;;4.75;1.58;;;;;;;19.59;100.00;100209.56;5031285;28;20057;-67
2023/07/26 09:22:04;;;;;;;4.65;1.50;;;;;;;19.82;100.00;100193.56;5023697;28;20102;-68
2023/07/26 09:24:42;;;;;;;3.55;1.17;;;;;;;19.60;100.00;100194.47;5031193;28;20088;-67
2023/07/26 09:27:11;;;;;;;5.30;1.58;;;;;;;19.45;100.00;100199.28;5013091;28;20049;-68
2023/07/26 09:29:40;;;;;;;5.32;1.38;;;;;;;19.44;100.00;100201.09;5028498;28;20140;-69
2023/07/26 09:32:07;;;;;;;4.78;1.50;;;;;;;19.98;100.00;100177.97;5019654;28;20159;-69
2023/07/26 09:34:35;;;;;;;3.85;1.48;;;;;;;19.78;100.00;100192.09;5026535;28;20483;-67
2023/07/26 09:37:02;;;;;;;4.90;1.30;;;;;;;19.55;100.00;100181.59;5030749;28;20072;-68
2023/07/26 09:39:33;;;;;;;4.38;1.35;;;;;;;19.53;100.00;100183.56;5032137;28;20045;-67
2023/07/26 09:42:08;;;;;;;4.43;1.60;;;;;;;19.94;100.00;100194.28;5027650;28;20222;-68
2023/07/26 09:44:36;;;;;;;5.10;1.60;;;;;;;19.88;100.00;100191.22;5030248;28;20065;-68
2023/07/26 09:47:06;;;;;;;5.50;1.80;;;;;;;19.35;100.00;100184.13;5025189;28;20076;-68
2023/07/26 09:49:34;;;;;;;5.13;1.50;;;;;;;18.60;100.00;100184.91;5019042;28;20060;-67
2023/07/26 09:52:11;;;;;;;4.78;1.40;;;;;;;18.74;100.00;100192.59;5018960;28;20051;-67
2023/07/26 09:54:40;;;;;;;3.65;1.20;;;;;;;18.74;100.00;100184.63;5029942;28;20045;-67
2023/07/26 09:57:09;;;;;;;2.88;1.20;;;;;;;19.20;100.00;100176.59;5025613;28;20444;-67
2023/07/26 09:59:40;;;;;;;5.15;1.60;;;;;;;19.37;100.00;100173.38;5023567;28;20439;-67
2023/07/26 10:02:11;;;;;;;4.68;1.23;;;;;;;20.03;100.00;100177.59;5026684;28;20049;-67
2023/07/26 10:04:42;;;;;;;4.68;1.50;;;;;;;20.33;100.00;100174.06;5030221;28;20196;-68
2023/07/26 10:07:12;;;;;;;4.85;1.48;;;;;;;19.94;100.00;100173.91;5027495;28;20136;-68
2023/07/26 10:09:46;;;;;;;5.18;1.40;;;;;;;20.06;96.75;100166.66;5026152;28;20054;-67
2023/07/26 10:12:14;;;;;;;6.32;1.60;;;;;;;20.01;100.00;100171.53;5021129;28;20056;-67
2023/07/26 10:14:42;;;;;;;6.32;1.55;;;;;;;19.34;99.63;100181.59;5026676;28;20045;-67
2023/07/26 10:17:11;;;;;;;5.40;1.38;;;;;;;19.26;95.11;100181.38;5025883;28;20107;-68
2023/07/26 10:19:40;;;;;;;4.03;1.30;;;;;;;20.06;94.84;100175.50;5028357;28;20053;-68
2023/07/26 10:22:08;;;;;;;4.28;1.27;;;;;;;19.51;99.94;100172.19;5021611;28;20056;-67
2023/07/26 10:24:36;;;;;;;6.30;1.63;;;;;;;19.76;100.00;100165.69;5029015;28;20060;-67
2023/07/26 10:27:04;;;;;;;6.93;2.00;;;;;;;19.98;89.99;100172.66;5025940;28;20111;-66
2023/07/26 10:29:31;;;;;;;5.05;1.50;;;;;;;19.58;97.67;100176.00;5027399;28;20045;-67
2023/07/26 10:32:08;;;;;;;4.65;1.40;;;;;;;20.35;98.03;100163.31;5021684;28;20050;-67
2023/07/26 10:34:35;;;;;;;3.70;1.25;;;;;;;20.95;98.02;100169.47;5020813;28;20136;-68
2023/07/26 10:37:23;;;;;;;5.13;1.00;;;;;;;20.01;90.26;100177.72;5030374;28;20054;-68
2023/07/26 10:39:50;;;;;;;4.30;1.17;;;;;;;19.37;95.87;100173.38;5030016;28;20411;-67
2023/07/26 10:42:27;;;;;;;4.30;1.63;;;;;;;19.57;95.38;100177.00;5018445;28;20137;-67
2023/07/26 10:44:59;;;;;;;5.32;1.58;;;;;;;19.31;86.42;100173.88;5028611;28;20053;-67
2023/07/26 10:47:26;;;;;;;3.40;1.30;;;;;;;19.84;93.27;100160.56;5013183;28;20076;-68
2023/07/26 10:49:55;;;;;;;2.97;1.00;;;;;;;20.42;87.86;100170.59;5027392;28;20467;-67
2023/07/26 10:52:22;;;;;;;3.78;1.15;;;;;;;20.28;95.83;100155.03;5018069;28;20046;-69
2023/07/26 10:54:50;;;;;;;4.43;1.40;;;;;;;20.26;84.92;100156.97;5027469;28;20498;-68
2023/07/26 10:57:20;;;;;;;5.30;1.52;;;;;;;20.02;94.94;100150.16;5033881;28;20049;-67
2023/07/26 11:00:11;;;;;;;6.25;1.90;;;;;;;20.06;100.00;100162.22;5024709;28;20053;-67
2023/07/26 11:02:46;;;;;;;5.60;1.30;;;;;;;19.79;100.00;100156.63;5024666;28;20065;-67
2023/07/26 11:05:17;;;;;;;4.95;1.63;;;;;;;20.33;100.00;100158.13;5026177;28;20053;-68
2023/07/26 11:08:04;;;;;;;5.05;1.50;;;;;;;19.27;100.00;100151.22;5027475;28;20049;-68
2023/07/26 11:10:32;;;;;;;4.28;1.48;;;;;;;19.79;100.00;100165.41;5024018;28;20479;-68
2023/07/26 11:13:04;;;;;;;7.07;1.55;;;;;;;19.91;100.00;100167.03;5023646;28;20372;-68
2023/07/26 11:15:32;;;;;;;5.18;1.40;;;;;;;19.43;100.00;100148.94;5025297;28;20053;-68
2023/07/26 11:18:20;;;;;;;5.80;1.70;;;;;;;19.50;100.00;100152.78;5026645;28;20053;-67
2023/07/26 11:20:49;;;;;;;7.10;1.85;;;;;;;20.02;100.00;100154.63;5023802;28;20052;-69